Terminal Aerodrome Forecast
Issued by NWS Flagstaff, AZ

Home | Current Version | Previous Version | Text Only | Print | Product List | Glossary On
Versions: 1 2 3 4 5 6 7 8 9 10 11 12 13
000
FTUS45 KFGZ 310500
TAFFLG
TAF
KFLG 310520Z 3106/0106 22005KT P6SM SCT250
     FM311500 23010KT P6SM FEW250
     FM311700 22018G28KT P6SM SKC
     FM010200 22005KT P6SM SKC=

USA.gov is the U.S. government's official web portal to all federal, state and local government web resources and services.